Log in

QuinStreet Institutional Ownership (NASDAQ:QNST)

$11.98
-0.04 (-0.33 %)
(As of 10/13/2019 04:00 PM ET)
Today's Range
$11.96
Now: $11.99
$12.39
50-Day Range
$11.00
MA: $12.03
$12.98
52-Week Range
$10.15
Now: $11.99
$20.02
Volume448,194 shs
Average Volume679,570 shs
Market Capitalization$612.43 million
P/E Ratio10.16
Dividend YieldN/A
Beta0.72

Institutional Ownership

Institutional Ownership Changes (13F Filings) for QuinStreet (NASDAQ:QNST)

Institutional Ownership Percentage: 97.60%

QuinStreet (NASDAQ QNST) Institutional Buying and Selling

Reporting DateHedge FundShares HeldMarket Value% of PortfolioQuarterly Change in SharesOwnership in Company
10/10/2019Pacer Advisors Inc.10,685$0.14M0.0%N/A0.021%
10/2/2019State of Alaska Department of Revenue35,236$0.44M0.0%+164.6%0.069%
9/9/2019Park West Asset Management LLC4,000,000$63.40M2.6%-4.8%7.848%
8/19/2019Chartwell Investment Partners LLC141,804$2.25M0.1%-2.3%0.283%
8/17/2019Intrinsic Edge Capital Management LLC30,584$0.49M0.1%-96.0%0.061%
8/17/2019Prospect Capital Advisors LLC364,550$5.78M2.5%N/A0.727%
8/17/2019Royal Bank of Canada9,650$0.15M0.0%+74.9%0.019%
8/17/2019Red Cedar Management LP330,000$5.23M5.0%+20.0%0.658%
8/16/2019United Services Automobile Association12,175$0.19M0.0%-32.4%0.024%
8/16/2019Equitable Trust Co.180,486$2.86M0.3%+2.0%0.360%
8/15/2019Cambridge Investment Research Advisors Inc.13,103$0.21M0.0%-28.3%0.026%
8/15/2019Voce Capital Management LLC204,858$3.25M1.7%N/A0.408%
8/15/2019Nuveen Asset Management LLC228,597$3.62M0.0%+1,273.2%0.456%
8/15/2019Victory Capital Management Inc.2,257,664$35.78M0.1%+44.3%4.502%
8/15/2019UBS Asset Management Americas Inc.38,474$0.61M0.0%+100.1%0.077%
8/14/2019Marshall Wace LLP472,279$7.49M0.1%-26.3%0.942%
8/14/2019Morgan Stanley169,041$2.68M0.0%+712.0%0.337%
8/14/2019AQR Capital Management LLC37,964$0.60M0.0%-74.2%0.076%
8/14/2019Man Group plc14,600$0.23M0.0%-43.5%0.029%
8/14/2019Bank of America Corp DE2,642,499$41.88M0.0%+57.2%5.269%
8/14/2019Private Capital Management LLC3,465,578$54.93M8.1%+0.8%6.910%
8/14/2019Marshall Wace North America L.P.13,510$0.22M0.0%-87.2%0.027%
8/14/2019Balyasny Asset Management LLC41,136$0.65M0.0%+274.3%0.082%
8/14/2019Invesco Ltd.572,674$9.08M0.0%+96.8%1.142%
8/14/2019Vanguard Group Inc.2,571,243$40.75M0.0%+1.4%5.127%
8/13/2019Tower Research Capital LLC TRC4,360$69K0.0%+8,798.0%0.009%
8/13/2019Earnest Partners LLC794,113$12.59M0.1%+73.2%1.583%
8/13/2019BlackRock Inc.6,740,054$106.83M0.0%+4.5%13.440%
8/13/2019Dana Investment Advisors Inc.108,970$1.73M0.1%-28.3%0.217%
8/13/2019ETRADE Capital Management LLC60,348$0.96M0.0%+79.3%0.120%
8/13/2019HighTower Advisors LLC13,432$0.22M0.0%+22.4%0.027%
8/13/2019Pinebridge Investments L.P.1,851$29K0.0%N/A0.004%
8/13/2019Parametric Portfolio Associates LLC140,547$2.23M0.0%+14.1%0.280%
8/13/2019Northern Trust Corp574,332$9.10M0.0%+4.2%1.145%
8/12/2019Cadence Capital Management LLC202,312$3.21M0.3%-3.2%0.403%
8/12/2019Pitcairn Co.15,568$0.25M0.0%+11.0%0.031%
8/12/2019Bank of New York Mellon Corp579,605$9.19M0.0%-5.8%1.156%
8/12/2019Quantamental Technologies LLC5,331$84K0.0%N/A0.011%
8/12/2019M&T Bank Corp13,807$0.22M0.0%+28.3%0.028%
8/12/2019Capital Fund Management S.A.14,600$0.23M0.0%N/A0.029%
8/12/2019Fort Washington Investment Advisors Inc. OH845,000$13.39M0.1%+29.0%1.685%
8/10/2019LPL Financial LLC35,093$0.56M0.0%+63.1%0.070%
8/10/2019Charles Schwab Investment Management Inc.104,808$1.66M0.0%+3.5%0.209%
8/10/2019Nicholas Investment Partners LP130,022$2.06M0.2%N/A0.259%
8/9/2019William Blair Investment Management LLC974,143$15.44M0.1%N/A1.942%
8/9/2019Bank of Montreal Can6,912$0.11M0.0%-83.4%0.014%
8/9/2019BBT Capital Management LLC29,927$0.47M0.6%-31.4%0.060%
8/9/2019Panagora Asset Management Inc.243,414$3.86M0.0%-15.0%0.485%
8/9/2019Russell Investments Group Ltd.286,936$4.55M0.0%+17.7%0.572%
8/9/2019Prudential Financial Inc.155,478$2.46M0.0%-29.4%0.310%
8/8/2019Allianz Asset Management GmbH405,486$6.43M0.0%+18.9%0.809%
8/8/2019Acadian Asset Management LLC166,871$2.64M0.0%-80.6%0.333%
8/7/2019Alps Advisors Inc.29,602$0.47M0.0%-5.0%0.059%
8/7/2019Monashee Investment Management LLC40,000$0.63M0.2%+14.3%0.080%
8/7/2019JPMorgan Chase & Co.84,527$1.34M0.0%-3.9%0.169%
8/6/2019Wells Fargo & Company MN354,598$5.62M0.0%-17.9%0.707%
8/5/2019State Board of Administration of Florida Retirement System22,238$0.35M0.0%+3.5%0.044%
8/2/2019Swiss National Bank78,700$1.25M0.0%+9.5%0.157%
8/2/2019Comerica Bank36,426$0.60M0.0%-4.3%0.073%
8/2/2019Envestnet Asset Management Inc.86,400$1.37M0.0%-14.4%0.172%
8/1/2019Rice Hall James & Associates LLC223,998$3.55M0.1%-25.9%0.447%
7/31/2019Advisor Group Inc.8,298$0.13M0.0%-11.0%0.017%
7/30/2019Aperio Group LLC4,603$73K0.0%N/A0.009%
7/30/2019BNP Paribas Arbitrage SA5,337$85K0.0%-42.4%0.011%
7/30/2019First Trust Advisors LP147,708$2.34M0.0%N/A0.295%
7/30/2019Zurcher Kantonalbank Zurich Cantonalbank5,108$81K0.0%+83.3%0.010%
7/29/2019Adams Diversified Equity Fund Inc.11,000$0.17M0.0%-28.6%0.022%
6/30/2019SG Americas Securities LLC53,198$0.84M0.0%N/A0.106%
6/30/2019Arizona State Retirement System60,681$0.96M0.0%+1.3%0.121%
6/30/2019Artemis Investment Management LLP737,665$11.37M0.1%+36.7%1.471%
6/30/2019BB&T Corp16,876$0.27M0.0%-11.8%0.034%
6/30/2019Huntington National Bank1,652$26K0.0%-32.2%0.003%
6/30/2019Falcon Point Capital LLC62,061$0.98M0.5%+64.1%0.124%
6/30/2019Mesirow Financial Investment Management Inc.43,901$0.68M2.5%+26.7%0.088%
6/30/2019Crossmark Global Holdings Inc.11,830$0.19M0.0%-5.3%0.024%
6/30/2019WINTON GROUP Ltd47,777$0.76M0.0%+97.1%0.095%
6/30/2019Cortina Asset Management LLC243,441$3.86M0.2%N/A0.485%
6/16/2019Metropolitan Life Insurance Co NY13,512$0.18M0.0%-7.9%0.027%
6/16/2019GYL Financial Synergies LLC27,006$0.36M0.1%N/A0.054%
6/16/2019Clearbridge Investments LLC709,271$9.50M0.0%N/A1.414%
6/16/2019Marshall Wace North America L.P.105,639$1.41M0.0%N/A0.211%
6/16/2019Marshall Wace LLP640,759$8.58M0.1%N/A1.278%
5/16/2019Private Capital Management LLC3,438,915$46.05M32.6%-10.8%6.857%
5/14/2019Red Cedar Management LP275,000$3.68M3.8%+52.8%0.552%
5/14/20191492 Capital Management LLC86,757$1.16M1.0%-8.8%0.174%
5/13/2019Bienville Capital Management LLC11,025$0.15M0.0%-9.1%0.022%
5/10/2019Intrust Bank NA16,074$0.22M0.1%-5.5%0.032%
5/10/2019BBT Capital Management LLC43,600$0.58M0.7%N/A0.088%
5/10/2019Globeflex Capital L P44,407$0.60M0.1%+831.4%0.089%
5/10/2019Fort Washington Investment Advisors Inc. OH655,000$8.77M0.1%+32.3%1.315%
5/9/2019Royce & Associates LP695,600$9.31M0.1%-3.7%1.397%
5/9/2019Oak Associates Ltd. OH46,340$0.62M0.0%+2.9%0.093%
5/9/2019Acadian Asset Management LLC859,489$11.51M0.0%-39.4%1.726%
5/8/2019Great West Life Assurance Co. Can54,500$0.73M0.0%+11.9%0.109%
5/8/2019Falcon Point Capital LLC37,809$0.51M0.3%+59.1%0.076%
5/7/2019Cadence Capital Management LLC209,079$2.80M0.3%+1.8%0.420%
5/6/2019American International Group Inc.32,985$0.44M0.0%-2.6%0.066%
5/3/2019Systematic Financial Management LP97,285$1.30M0.0%+26.7%0.195%
5/3/2019California Public Employees Retirement System208,022$2.79M0.0%-18.1%0.418%
5/3/2019Cavalier Investments LLC35,600$0.48M0.2%N/A0.071%
(Data available from 1/1/2016 forward)
This page was last updated on 10/13/2019 by MarketBeat.com Staff

Featured Article: What is the Current Ratio?

Enter your email address below to receive a concise daily summary of analysts' upgrades, downgrades and new coverage with MarketBeat.com's FREE daily email newsletter.

Yahoo Gemini Pixel